createdAt,value
2023-01-19T00:00:47.962Z,-0.41
2023-01-19T00:01:47.927Z,-0.52
2023-01-19T00:02:47.920Z,-0.48
2023-01-19T00:03:47.882Z,-0.55
2023-01-19T00:04:47.837Z,-0.54
2023-01-19T00:05:47.871Z,-0.55
2023-01-19T00:06:47.779Z,-0.44
2023-01-19T00:07:47.760Z,-0.42
2023-01-19T00:08:47.715Z,-0.41
2023-01-19T00:09:56.360Z,-0.37
2023-01-19T00:11:41.053Z,-0.62
2023-01-19T00:12:41.003Z,-0.63
2023-01-19T00:13:40.987Z,-0.57
2023-01-19T00:14:40.956Z,-0.70
2023-01-19T00:15:40.949Z,-0.65
2023-01-19T00:16:40.900Z,-0.60
2023-01-19T00:17:40.869Z,-0.65
2023-01-19T00:18:40.833Z,-0.47
2023-01-19T00:19:40.806Z,-0.48
2023-01-19T00:20:40.824Z,-0.47
2023-01-19T00:21:40.756Z,-0.59
2023-01-19T00:22:40.728Z,-0.47
2023-01-19T00:23:40.699Z,-0.36
2023-01-19T00:24:40.675Z,-0.37
2023-01-19T00:25:40.650Z,-0.47
2023-01-19T00:26:40.620Z,-0.47
2023-01-19T00:27:40.592Z,-0.42
2023-01-19T00:28:40.557Z,-0.60
2023-01-19T00:29:40.532Z,-0.80
2023-01-19T00:30:40.526Z,-0.70
2023-01-19T00:31:40.495Z,-0.72
2023-01-19T00:32:40.442Z,-0.57
2023-01-19T00:33:40.422Z,-0.63
2023-01-19T00:34:40.391Z,-0.65
2023-01-19T00:35:40.365Z,-0.41
2023-01-19T00:36:40.328Z,-0.47
2023-01-19T00:37:40.309Z,-0.37
2023-01-19T00:38:40.299Z,-0.41
2023-01-19T00:39:40.251Z,-0.48
2023-01-19T00:40:40.221Z,-0.29
2023-01-19T00:41:40.206Z,-0.30
2023-01-19T00:42:40.157Z,-0.31
2023-01-19T00:43:40.141Z,-0.29
2023-01-19T00:44:40.105Z,-0.22
2023-01-19T00:45:40.125Z,-0.01
2023-01-19T00:46:40.047Z,-0.06
2023-01-19T00:47:40.029Z,0.05
2023-01-19T00:48:39.995Z,0.09
2023-01-19T00:49:39.992Z,0.09
2023-01-19T00:50:39.951Z,0.03
2023-01-19T00:51:39.914Z,0.09
2023-01-19T00:52:39.893Z,0.18
2023-01-19T00:53:39.865Z,0.21
2023-01-19T00:54:39.831Z,0.10
2023-01-19T00:55:39.800Z,0.15
2023-01-19T00:56:39.785Z,0.09
2023-01-19T00:57:39.749Z,0.13
2023-01-19T00:58:39.732Z,0.23
2023-01-19T00:59:39.713Z,0.16
2023-01-19T01:00:39.667Z,0.15
2023-01-19T01:01:46.110Z,0.06
2023-01-19T01:02:39.765Z,0.23
2023-01-19T01:03:39.583Z,0.31
2023-01-19T01:04:39.545Z,0.31
2023-01-19T01:05:39.531Z,0.28
2023-01-19T01:06:39.507Z,0.33
2023-01-19T01:07:39.484Z,0.33
2023-01-19T01:08:39.480Z,0.39
2023-01-19T01:09:39.442Z,0.30
2023-01-19T01:10:39.380Z,0.45
2023-01-19T01:11:39.357Z,0.31
2023-01-19T01:12:39.340Z,0.41
2023-01-19T01:13:39.303Z,0.42
2023-01-19T01:14:39.275Z,0.46
2023-01-19T01:15:39.248Z,0.43
2023-01-19T01:16:39.318Z,0.38
2023-01-19T01:17:39.200Z,0.48
2023-01-19T01:18:39.185Z,0.41
2023-01-19T01:19:39.135Z,0.41
2023-01-19T01:20:39.103Z,0.36
2023-01-19T01:21:39.085Z,0.27
2023-01-19T01:22:39.052Z,0.36
2023-01-19T01:23:39.025Z,0.36
2023-01-19T01:24:39.001Z,0.36
2023-01-19T01:25:38.969Z,0.41
2023-01-19T01:26:38.938Z,0.48
2023-01-19T01:27:38.917Z,0.52
2023-01-19T01:28:38.882Z,0.42
2023-01-19T01:29:38.856Z,0.52
2023-01-19T01:30:38.826Z,0.61
2023-01-19T01:31:38.853Z,0.60
2023-01-19T01:32:38.771Z,0.57
2023-01-19T01:33:39.919Z,0.58
2023-01-19T01:34:38.714Z,0.53
2023-01-19T01:35:38.699Z,0.68
2023-01-19T01:36:38.665Z,0.67
2023-01-19T01:37:38.642Z,0.65
2023-01-19T01:38:38.612Z,0.65
2023-01-19T01:39:38.582Z,0.70
2023-01-19T01:40:38.552Z,0.71
2023-01-19T01:41:38.524Z,0.76
2023-01-19T01:42:38.504Z,0.75
2023-01-19T01:43:38.468Z,0.72
2023-01-19T01:44:38.442Z,0.70
2023-01-19T01:45:38.554Z,0.68
2023-01-19T01:46:38.396Z,0.75
2023-01-19T01:47:38.364Z,0.72
2023-01-19T01:48:38.334Z,0.82
2023-01-19T01:49:38.305Z,0.71
2023-01-19T01:50:38.280Z,0.75
2023-01-19T01:51:38.258Z,0.75
2023-01-19T01:52:38.226Z,0.79
2023-01-19T01:53:38.188Z,0.78
2023-01-19T01:54:38.169Z,0.83
2023-01-19T01:55:38.174Z,0.78
2023-01-19T01:56:38.118Z,0.76
2023-01-19T01:57:38.115Z,0.86
2023-01-19T01:58:38.071Z,0.82
2023-01-19T01:59:38.040Z,0.76
2023-01-19T02:00:38.009Z,0.72
2023-01-19T02:01:38.053Z,0.75
2023-01-19T02:02:37.980Z,0.89
2023-01-19T02:03:37.959Z,0.75
2023-01-19T02:04:37.905Z,0.72
2023-01-19T02:05:37.872Z,0.70
2023-01-19T02:06:37.840Z,0.72
2023-01-19T02:07:37.813Z,0.79
2023-01-19T02:08:37.781Z,0.70
2023-01-19T02:09:37.754Z,0.89
2023-01-19T02:10:37.734Z,0.92
2023-01-19T02:11:37.697Z,0.88
2023-01-19T02:12:37.712Z,0.90
2023-01-19T02:13:37.659Z,0.92
2023-01-19T02:14:37.629Z,0.94
2023-01-19T02:15:37.585Z,0.98
2023-01-19T02:16:37.689Z,0.90
2023-01-19T02:17:37.534Z,1.00
2023-01-19T02:18:37.522Z,0.96
2023-01-19T02:19:37.479Z,1.00
2023-01-19T02:20:37.457Z,1.00
2023-01-19T02:21:37.425Z,0.90
2023-01-19T02:22:37.407Z,0.97
2023-01-19T02:23:37.366Z,0.90
2023-01-19T02:24:37.346Z,0.98
2023-01-19T02:25:37.312Z,1.01
2023-01-19T02:26:37.289Z,1.00
2023-01-19T02:27:37.268Z,0.90
2023-01-19T02:28:37.243Z,0.94
2023-01-19T02:29:37.205Z,0.97
2023-01-19T02:30:37.230Z,0.98
2023-01-19T02:31:37.190Z,0.92
2023-01-19T02:32:37.148Z,1.00
2023-01-19T02:33:37.209Z,1.06
2023-01-19T02:34:37.118Z,1.01
2023-01-19T02:35:37.045Z,1.04
2023-01-19T02:36:37.047Z,1.01
2023-01-19T02:37:36.984Z,1.16
2023-01-19T02:38:36.980Z,1.14
2023-01-19T02:39:36.937Z,1.15
2023-01-19T02:40:36.995Z,1.15
2023-01-19T02:41:36.881Z,1.21
2023-01-19T02:42:36.865Z,1.15
2023-01-19T02:43:36.821Z,1.21
2023-01-19T02:44:36.814Z,1.18
2023-01-19T02:45:36.776Z,1.22
2023-01-19T02:46:36.765Z,1.10
2023-01-19T02:47:36.726Z,1.18
2023-01-19T02:48:36.719Z,1.14
2023-01-19T02:49:36.656Z,1.22
2023-01-19T02:50:36.665Z,1.22
2023-01-19T02:51:36.603Z,1.16
2023-01-19T02:52:36.589Z,1.16
2023-01-19T02:53:36.560Z,1.14
2023-01-19T02:54:36.547Z,1.16
2023-01-19T02:55:36.494Z,1.18
2023-01-19T02:56:36.477Z,1.18
2023-01-19T02:57:36.446Z,1.19
2023-01-19T02:58:36.430Z,1.15
2023-01-19T02:59:36.426Z,1.14
2023-01-19T03:00:36.424Z,1.16
2023-01-19T03:01:36.435Z,1.21
2023-01-19T03:02:36.370Z,1.15
2023-01-19T03:03:36.283Z,1.14
2023-01-19T03:04:36.256Z,1.04
2023-01-19T03:05:36.234Z,1.01
2023-01-19T03:06:36.206Z,1.04
2023-01-19T03:07:36.169Z,1.04
2023-01-19T03:08:36.156Z,1.14
2023-01-19T03:09:36.114Z,1.06
2023-01-19T03:10:36.134Z,1.15
2023-01-19T03:11:36.075Z,1.01
2023-01-19T03:12:36.041Z,1.04
2023-01-19T03:13:36.008Z,0.97
2023-01-19T03:14:35.998Z,1.01
2023-01-19T03:15:35.973Z,0.88
2023-01-19T03:16:35.985Z,0.94
2023-01-19T03:17:35.960Z,0.88
2023-01-19T03:18:35.877Z,0.94
2023-01-19T03:19:35.854Z,0.92
2023-01-19T03:20:35.829Z,0.83
2023-01-19T03:21:35.795Z,0.82
2023-01-19T03:22:35.765Z,0.80
2023-01-19T03:23:35.730Z,0.82
2023-01-19T03:24:37.013Z,0.92
2023-01-19T03:25:35.686Z,0.85
2023-01-19T03:26:35.655Z,0.89
2023-01-19T03:27:35.646Z,0.86
2023-01-19T03:28:35.607Z,0.94
2023-01-19T03:29:35.577Z,0.89
2023-01-19T03:30:35.638Z,0.97
2023-01-19T03:31:35.515Z,0.96
2023-01-19T03:32:35.625Z,0.92
2023-01-19T03:33:35.469Z,0.94
2023-01-19T03:34:35.435Z,0.98
2023-01-19T03:35:35.414Z,1.03
2023-01-19T03:36:35.390Z,1.01
2023-01-19T03:37:35.364Z,1.01
2023-01-19T03:38:35.333Z,1.03
2023-01-19T03:39:35.301Z,1.04
2023-01-19T03:40:35.281Z,1.00
2023-01-19T03:41:35.250Z,1.00
2023-01-19T03:42:35.214Z,1.01
2023-01-19T03:43:35.186Z,1.03
2023-01-19T03:44:35.227Z,1.08
2023-01-19T03:45:35.146Z,1.00
2023-01-19T03:46:35.106Z,1.08
2023-01-19T03:47:35.098Z,1.01
2023-01-19T03:48:35.061Z,1.10
2023-01-19T03:49:35.033Z,1.06
2023-01-19T03:50:35.001Z,1.03
2023-01-19T03:51:34.977Z,0.98
2023-01-19T03:52:34.956Z,0.89
2023-01-19T03:53:34.917Z,0.86
2023-01-19T03:54:34.928Z,0.94
2023-01-19T03:55:34.857Z,0.97
2023-01-19T03:56:34.837Z,0.94
2023-01-19T03:57:34.808Z,0.89
2023-01-19T03:58:34.793Z,0.86
2023-01-19T03:59:34.753Z,0.78
2023-01-19T04:00:34.730Z,0.76
2023-01-19T04:01:34.821Z,0.80
2023-01-19T04:02:34.718Z,0.80
2023-01-19T04:03:34.648Z,0.68
2023-01-19T04:04:34.643Z,0.58
2023-01-19T04:05:34.590Z,0.46
2023-01-19T04:06:34.568Z,0.39
2023-01-19T04:07:34.538Z,0.31
2023-01-19T04:08:34.509Z,0.38
2023-01-19T04:09:34.485Z,0.39
2023-01-19T04:10:34.463Z,0.39
2023-01-19T04:11:34.426Z,0.34
2023-01-19T04:12:34.414Z,0.25
2023-01-19T04:13:34.390Z,0.21
2023-01-19T04:14:34.347Z,0.24
2023-01-19T04:15:34.453Z,0.24
2023-01-19T04:16:34.301Z,0.25
2023-01-19T04:17:34.268Z,0.23
2023-01-19T04:18:34.900Z,0.07
2023-01-19T04:19:34.250Z,0.06
2023-01-19T04:20:34.205Z,0.21
2023-01-19T04:21:34.170Z,0.18
2023-01-19T04:22:34.129Z,0.21
2023-01-19T04:23:34.092Z,0.12
2023-01-19T04:24:34.076Z,-0.05
2023-01-19T04:25:34.041Z,-0.06
2023-01-19T04:26:34.027Z,-0.11
2023-01-19T04:27:33.990Z,-0.19
2023-01-19T04:28:33.964Z,-0.18
2023-01-19T04:29:33.937Z,-0.30
2023-01-19T04:30:33.911Z,-0.18
2023-01-19T04:31:33.968Z,-0.09
2023-01-19T04:32:33.882Z,-0.06
2023-01-19T04:33:33.848Z,-0.08
2023-01-19T04:34:33.801Z,0.09
2023-01-19T04:35:33.769Z,0.10
2023-01-19T04:36:33.763Z,0.15
2023-01-19T04:37:33.720Z,0.20
2023-01-19T04:38:33.726Z,0.25
2023-01-19T04:39:33.656Z,0.20
2023-01-19T04:40:33.641Z,0.23
2023-01-19T04:41:33.598Z,0.41
2023-01-19T04:42:33.592Z,0.38
2023-01-19T04:43:33.545Z,0.39
2023-01-19T04:44:33.521Z,0.27
2023-01-19T04:45:33.497Z,0.33
2023-01-19T04:46:33.595Z,0.43
2023-01-19T04:47:33.427Z,0.31
2023-01-19T04:48:33.516Z,0.41
2023-01-19T04:49:33.382Z,0.48
2023-01-19T04:50:33.372Z,0.39
2023-01-19T04:51:33.337Z,0.45
2023-01-19T04:52:33.299Z,0.45
2023-01-19T04:53:33.264Z,0.41
2023-01-19T04:54:33.318Z,0.34
2023-01-19T04:55:33.236Z,0.38
2023-01-19T04:56:33.195Z,0.39
2023-01-19T04:57:33.164Z,0.42
2023-01-19T04:58:33.143Z,0.48
2023-01-19T04:59:33.112Z,0.49
2023-01-19T05:00:33.084Z,0.43
2023-01-19T05:01:33.221Z,0.53
2023-01-19T05:02:33.233Z,0.65
2023-01-19T05:03:33.004Z,0.68
2023-01-19T05:04:32.964Z,0.76
2023-01-19T05:05:32.931Z,0.85
2023-01-19T05:06:32.916Z,0.83
2023-01-19T05:07:32.871Z,0.82
2023-01-19T05:08:32.864Z,0.86
2023-01-19T05:09:32.832Z,0.86
2023-01-19T05:10:32.798Z,0.79
2023-01-19T05:11:32.773Z,0.72
2023-01-19T05:12:32.745Z,0.72
2023-01-19T05:13:32.712Z,0.79
2023-01-19T05:14:32.692Z,0.72
2023-01-19T05:15:32.663Z,0.71
2023-01-19T05:16:32.648Z,0.76
2023-01-19T05:17:32.603Z,0.70
2023-01-19T05:18:32.582Z,0.62
2023-01-19T05:19:32.555Z,0.61
2023-01-19T05:20:32.527Z,0.51
2023-01-19T05:21:32.501Z,0.43
2023-01-19T05:22:32.469Z,0.58
2023-01-19T05:23:32.434Z,0.62
2023-01-19T05:24:32.436Z,0.45
2023-01-19T05:25:32.386Z,0.45
2023-01-19T05:26:32.360Z,0.58
2023-01-19T05:27:32.326Z,0.64
2023-01-19T05:28:32.303Z,0.76
2023-01-19T05:29:32.299Z,0.78
2023-01-19T05:30:32.248Z,0.82
2023-01-19T05:31:32.356Z,0.86
2023-01-19T05:32:32.203Z,0.97
2023-01-19T05:33:32.238Z,0.92
2023-01-19T05:34:32.139Z,0.98
2023-01-19T05:35:36.311Z,1.07
2023-01-19T05:36:32.682Z,1.00
2023-01-19T05:37:32.060Z,1.06
2023-01-19T05:38:35.939Z,1.04
2023-01-19T05:39:32.009Z,0.98
2023-01-19T05:40:32.069Z,1.06
2023-01-19T05:41:31.945Z,1.14
2023-01-19T05:42:32.884Z,1.14
2023-01-19T05:43:31.886Z,1.19
2023-01-19T05:44:31.864Z,1.15
2023-01-19T05:45:31.887Z,1.19
2023-01-19T05:46:31.842Z,1.18
2023-01-19T05:47:31.791Z,1.15
2023-01-19T05:48:31.760Z,1.24
2023-01-19T05:49:31.723Z,1.21
2023-01-19T05:50:31.713Z,1.24
2023-01-19T05:51:31.669Z,1.22
2023-01-19T05:52:31.647Z,1.22
2023-01-19T05:53:31.615Z,1.26
2023-01-19T05:54:31.596Z,1.29
2023-01-19T05:55:31.567Z,1.29
2023-01-19T05:56:31.596Z,1.24
2023-01-19T05:57:31.520Z,1.32
2023-01-19T05:58:31.487Z,1.29
2023-01-19T05:59:31.457Z,1.33
2023-01-19T06:00:31.437Z,1.36
2023-01-19T06:01:31.457Z,1.32
2023-01-19T06:02:31.391Z,1.29
2023-01-19T06:03:31.643Z,1.28
2023-01-19T06:04:31.322Z,1.25
2023-01-19T06:05:31.296Z,1.29
2023-01-19T06:06:31.372Z,1.24
2023-01-19T06:07:31.239Z,1.29
2023-01-19T06:08:31.425Z,1.21
2023-01-19T06:09:31.186Z,1.21
2023-01-19T06:10:31.162Z,1.19
2023-01-19T06:11:31.136Z,1.21
2023-01-19T06:12:31.131Z,1.16
2023-01-19T06:13:31.080Z,1.08
2023-01-19T06:14:31.058Z,1.15
2023-01-19T06:15:31.022Z,1.19
2023-01-19T06:16:31.023Z,1.14
2023-01-19T06:17:30.968Z,1.08
2023-01-19T06:18:30.950Z,1.01
2023-01-19T06:19:30.915Z,1.03
2023-01-19T06:20:30.892Z,1.00
2023-01-19T06:21:30.889Z,0.97
2023-01-19T06:22:30.828Z,1.00
2023-01-19T06:23:30.827Z,1.01
2023-01-19T06:24:30.799Z,1.04
2023-01-19T06:25:30.781Z,1.12
2023-01-19T06:26:30.745Z,1.01
2023-01-19T06:27:30.708Z,1.00
2023-01-19T06:28:30.853Z,0.98
2023-01-19T06:29:30.668Z,0.90
2023-01-19T06:30:30.706Z,0.89
2023-01-19T06:31:30.635Z,0.85
2023-01-19T06:32:30.560Z,0.79
2023-01-19T06:33:30.543Z,0.72
2023-01-19T06:34:30.526Z,0.76
2023-01-19T06:35:30.481Z,0.86
2023-01-19T06:36:30.465Z,0.72
2023-01-19T06:37:30.429Z,0.86
2023-01-19T06:38:30.425Z,0.76
2023-01-19T06:39:30.377Z,0.78
2023-01-19T06:40:30.409Z,0.78
2023-01-19T06:41:30.321Z,0.75
2023-01-19T06:42:30.285Z,0.85
2023-01-19T06:43:30.298Z,0.92
2023-01-19T06:44:30.294Z,0.89
2023-01-19T06:45:30.291Z,0.96
2023-01-19T06:46:30.168Z,1.00
2023-01-19T06:47:30.164Z,1.06
2023-01-19T06:48:30.161Z,0.98
2023-01-19T06:49:30.110Z,1.07
2023-01-19T06:50:30.112Z,1.07
2023-01-19T06:51:30.042Z,1.00
2023-01-19T06:52:30.049Z,0.98
2023-01-19T06:53:30.031Z,1.03
2023-01-19T06:54:30.173Z,1.06
2023-01-19T06:55:29.979Z,1.04
2023-01-19T06:56:29.970Z,1.14
2023-01-19T06:57:30.047Z,1.14
2023-01-19T06:58:30.020Z,1.14
2023-01-19T06:59:29.978Z,1.12
2023-01-19T07:00:29.821Z,1.10
2023-01-19T07:01:29.956Z,1.14
2023-01-19T07:02:29.997Z,1.04
2023-01-19T07:03:29.770Z,1.16
2023-01-19T07:04:29.689Z,1.25
2023-01-19T07:05:29.662Z,1.22
2023-01-19T07:06:29.641Z,1.29
2023-01-19T07:07:29.609Z,1.24
2023-01-19T07:08:29.573Z,1.19
2023-01-19T07:09:29.552Z,1.18
2023-01-19T07:11:23.010Z,1.18
2023-01-19T07:11:33.043Z,1.08
2023-01-19T07:12:29.465Z,1.12
2023-01-19T07:13:29.440Z,1.22
2023-01-19T07:14:29.408Z,1.25
2023-01-19T07:15:29.388Z,1.25
2023-01-19T07:16:29.393Z,1.21
2023-01-19T07:17:29.332Z,1.15
2023-01-19T07:18:29.342Z,1.12
2023-01-19T07:19:29.283Z,1.12
2023-01-19T07:20:29.249Z,1.08
2023-01-19T07:21:29.500Z,1.15
2023-01-19T07:22:29.189Z,1.14
2023-01-19T07:23:29.171Z,1.22
2023-01-19T07:24:29.156Z,1.12
2023-01-19T07:25:29.115Z,1.21
2023-01-19T07:26:29.089Z,1.29
2023-01-19T07:27:29.061Z,1.26
2023-01-19T07:28:29.047Z,1.26
2023-01-19T07:29:29.007Z,1.24
2023-01-19T07:30:29.112Z,1.24
2023-01-19T07:31:29.028Z,1.24
2023-01-19T07:32:28.934Z,1.21
2023-01-19T07:33:28.899Z,1.21
2023-01-19T07:34:28.870Z,1.26
2023-01-19T07:35:28.845Z,1.26
2023-01-19T07:36:28.828Z,1.24
2023-01-19T07:37:28.792Z,1.32
2023-01-19T07:38:28.765Z,1.37
2023-01-19T07:39:28.735Z,1.26
2023-01-19T07:40:28.737Z,1.28
2023-01-19T07:41:28.683Z,1.32
2023-01-19T07:42:28.650Z,1.42
2023-01-19T07:43:28.635Z,1.34
2023-01-19T07:44:28.597Z,1.37
2023-01-19T07:45:28.580Z,1.47
2023-01-19T07:46:28.539Z,1.50
2023-01-19T07:47:28.533Z,1.54
2023-01-19T07:48:28.495Z,1.52
2023-01-19T07:49:28.476Z,1.62
2023-01-19T07:50:28.437Z,1.58
2023-01-19T07:51:28.411Z,1.54
2023-01-19T07:52:28.383Z,1.51
2023-01-19T07:53:28.370Z,1.52
2023-01-19T07:54:28.325Z,1.58
2023-01-19T07:55:28.301Z,1.58
2023-01-19T07:56:28.279Z,1.60
2023-01-19T07:57:28.268Z,1.58
2023-01-19T07:58:28.252Z,1.65
2023-01-19T07:59:28.201Z,1.60
2023-01-19T08:00:28.171Z,1.68
2023-01-19T08:01:28.285Z,1.62
2023-01-19T08:02:28.120Z,1.65
2023-01-19T08:03:28.101Z,1.71
2023-01-19T08:04:28.202Z,1.71
2023-01-19T08:05:28.039Z,1.72
2023-01-19T08:06:28.003Z,1.73
2023-01-19T08:07:27.982Z,1.82
2023-01-19T08:08:27.959Z,1.73
2023-01-19T08:09:28.082Z,1.85
2023-01-19T08:10:27.911Z,1.93
2023-01-19T08:11:28.043Z,1.94
2023-01-19T08:12:27.901Z,2.02
2023-01-19T08:13:27.832Z,2.06
2023-01-19T08:14:27.790Z,2.17
2023-01-19T08:15:27.829Z,2.20
2023-01-19T08:16:27.739Z,2.19
2023-01-19T08:17:27.715Z,2.22
2023-01-19T08:18:27.688Z,2.12
2023-01-19T08:19:27.667Z,2.22
2023-01-19T08:20:27.818Z,2.23
2023-01-19T08:21:27.616Z,2.19
2023-01-19T08:22:27.604Z,2.17
2023-01-19T08:23:27.586Z,2.34
2023-01-19T08:24:27.526Z,2.23
2023-01-19T08:25:27.510Z,2.26
2023-01-19T08:26:27.492Z,2.20
2023-01-19T08:27:27.451Z,2.34
2023-01-19T08:28:27.542Z,2.20
2023-01-19T08:29:27.414Z,2.30
2023-01-19T08:30:27.396Z,2.31
2023-01-19T08:31:27.453Z,2.26
2023-01-19T08:32:27.409Z,2.23
2023-01-19T08:33:27.299Z,2.20
2023-01-19T08:34:27.263Z,2.30
2023-01-19T08:35:27.233Z,2.23
2023-01-19T08:36:27.282Z,2.26
2023-01-19T08:37:27.193Z,2.19
2023-01-19T08:38:27.155Z,2.23
2023-01-19T08:39:27.132Z,2.17
2023-01-19T08:40:27.105Z,2.16
2023-01-19T08:41:27.106Z,2.26
2023-01-19T08:42:27.046Z,2.28
2023-01-19T08:43:27.056Z,2.27
2023-01-19T08:44:27.000Z,2.23
2023-01-19T08:45:26.976Z,2.30
2023-01-19T08:46:26.979Z,2.76
2023-01-19T08:47:27.041Z,3.20
2023-01-19T08:48:26.898Z,3.92
2023-01-19T08:49:26.921Z,4.39
2023-01-19T08:50:26.928Z,4.70
2023-01-19T08:51:26.814Z,4.70
2023-01-19T08:52:26.799Z,4.51
2023-01-19T08:53:26.761Z,4.64
2023-01-19T08:54:26.735Z,4.61
2023-01-19T08:55:26.718Z,4.95
2023-01-19T08:56:26.682Z,5.19
2023-01-19T08:57:26.648Z,5.41
2023-01-19T08:58:26.620Z,5.13
2023-01-19T08:59:26.593Z,4.83
2023-01-19T09:00:26.584Z,4.69
2023-01-19T09:01:26.759Z,4.51
2023-01-19T09:02:26.699Z,4.51
2023-01-19T09:03:26.555Z,4.42
2023-01-19T09:04:26.481Z,4.40
2023-01-19T09:05:26.443Z,4.03
2023-01-19T09:06:35.382Z,4.01
2023-01-19T09:08:19.948Z,3.97
2023-01-19T09:09:19.828Z,3.85
2023-01-19T09:10:19.789Z,3.85
2023-01-19T09:11:19.832Z,3.90
2023-01-19T09:12:19.866Z,4.26
2023-01-19T09:13:19.623Z,4.33
2023-01-19T09:14:19.600Z,4.37
2023-01-19T09:15:19.589Z,4.33
2023-01-19T09:16:19.578Z,4.25
2023-01-19T09:17:19.512Z,4.25
2023-01-19T09:18:19.506Z,4.07
2023-01-19T09:19:19.484Z,4.16
2023-01-19T09:20:19.450Z,4.29
2023-01-19T09:21:19.436Z,4.36
2023-01-19T09:22:19.390Z,4.16
2023-01-19T09:23:19.362Z,4.00
2023-01-19T09:24:19.344Z,3.90
2023-01-19T09:25:19.313Z,3.82
2023-01-19T09:26:19.292Z,3.79
2023-01-19T09:27:19.261Z,3.96
2023-01-19T09:28:19.241Z,3.83
2023-01-19T09:29:19.207Z,3.88
2023-01-19T09:30:19.189Z,3.78
2023-01-19T09:31:19.209Z,3.75
2023-01-19T09:32:19.133Z,3.75
2023-01-19T09:33:19.102Z,3.60
2023-01-19T09:34:19.092Z,3.47
2023-01-19T09:35:19.069Z,3.47
2023-01-19T09:36:19.034Z,3.44
2023-01-19T09:37:19.005Z,3.44
2023-01-19T09:38:18.977Z,3.54
2023-01-19T09:39:18.951Z,3.46
2023-01-19T09:40:18.997Z,3.47
2023-01-19T09:41:18.897Z,3.36
2023-01-19T09:42:18.875Z,3.42
2023-01-19T09:43:18.839Z,3.42
2023-01-19T09:44:18.828Z,3.58
2023-01-19T09:45:18.822Z,3.61
2023-01-19T09:46:18.818Z,3.78
2023-01-19T09:47:18.740Z,3.78
2023-01-19T09:48:18.709Z,3.94
2023-01-19T09:49:18.691Z,3.97
2023-01-19T09:50:18.665Z,4.12
2023-01-19T09:51:18.643Z,4.26
2023-01-19T09:52:18.796Z,4.51
2023-01-19T09:53:18.597Z,4.57
2023-01-19T09:54:18.578Z,4.73
2023-01-19T09:55:18.572Z,4.94
2023-01-19T09:56:18.511Z,5.10
2023-01-19T09:57:18.483Z,5.09
2023-01-19T09:58:18.451Z,5.05
2023-01-19T09:59:18.458Z,5.25
2023-01-19T10:00:18.407Z,5.35
2023-01-19T10:01:18.533Z,5.28
2023-01-19T10:02:18.357Z,5.35
2023-01-19T10:03:18.403Z,5.09
2023-01-19T10:04:18.303Z,5.07
2023-01-19T10:05:18.274Z,5.50
2023-01-19T10:06:18.243Z,5.53
2023-01-19T10:07:18.210Z,5.13
2023-01-19T10:08:18.202Z,5.25
2023-01-19T10:09:18.172Z,5.13
2023-01-19T10:10:18.145Z,5.02
2023-01-19T10:11:18.129Z,5.01
2023-01-19T10:12:19.829Z,5.48
2023-01-19T10:13:18.063Z,5.49
2023-01-19T10:14:18.040Z,5.55
2023-01-19T10:15:18.010Z,5.50
2023-01-19T10:16:18.102Z,5.50
2023-01-19T10:17:18.024Z,5.49
2023-01-19T10:18:17.952Z,5.14
2023-01-19T10:19:17.912Z,5.14
2023-01-19T10:20:17.918Z,5.30
2023-01-19T10:21:17.869Z,5.53
2023-01-19T10:22:17.879Z,5.64
2023-01-19T10:23:17.806Z,5.56
2023-01-19T10:24:17.808Z,5.71
2023-01-19T10:25:17.809Z,5.71
2023-01-19T10:26:17.769Z,5.92
2023-01-19T10:27:17.733Z,5.57
2023-01-19T10:28:17.704Z,5.64
2023-01-19T10:29:17.679Z,5.74
2023-01-19T10:30:17.653Z,6.07
2023-01-19T10:31:17.724Z,6.03
2023-01-19T10:32:17.623Z,6.50
2023-01-19T10:33:17.577Z,6.50
2023-01-19T10:34:20.360Z,6.19
2023-01-19T10:35:17.518Z,6.62
2023-01-19T10:36:17.499Z,6.50
2023-01-19T10:37:17.505Z,6.59
2023-01-19T10:38:17.451Z,6.38
2023-01-19T10:39:17.416Z,6.29
2023-01-19T10:40:17.388Z,5.92
2023-01-19T10:41:17.356Z,5.82
2023-01-19T10:42:17.340Z,5.71
2023-01-19T10:43:17.338Z,5.49
2023-01-19T10:44:17.298Z,5.25
2023-01-19T10:45:17.342Z,5.17
2023-01-19T10:46:17.363Z,4.79
2023-01-19T10:47:17.231Z,4.43
2023-01-19T10:48:17.203Z,4.51
2023-01-19T10:49:17.207Z,4.29
2023-01-19T10:50:17.141Z,4.21
2023-01-19T10:51:17.166Z,4.07
2023-01-19T10:52:19.000Z,4.14
2023-01-19T10:53:17.068Z,4.15
2023-01-19T10:54:17.131Z,4.06
2023-01-19T10:55:17.115Z,4.01
2023-01-19T10:56:16.992Z,3.88
2023-01-19T10:57:16.983Z,3.85
2023-01-19T10:58:18.955Z,3.76
2023-01-19T10:59:16.918Z,3.75
2023-01-19T11:00:16.943Z,3.83
2023-01-19T11:01:16.969Z,3.75
2023-01-19T11:02:17.020Z,3.68
2023-01-19T11:03:16.860Z,3.65
2023-01-19T11:04:16.863Z,3.75
2023-01-19T11:05:16.752Z,3.70
2023-01-19T11:06:16.737Z,3.64
2023-01-19T11:07:16.713Z,3.72
2023-01-19T11:08:16.699Z,3.79
2023-01-19T11:09:16.660Z,3.78
2023-01-19T11:10:16.665Z,3.76
2023-01-19T11:11:16.609Z,3.71
2023-01-19T11:12:16.607Z,3.82
2023-01-19T11:13:16.570Z,3.75
2023-01-19T11:14:16.557Z,3.62
2023-01-19T11:15:16.510Z,3.65
2023-01-19T11:16:16.573Z,3.58
2023-01-19T11:17:16.476Z,3.65
2023-01-19T11:18:16.467Z,3.62
2023-01-19T11:19:16.418Z,3.71
2023-01-19T11:20:16.374Z,3.71
2023-01-19T11:21:16.373Z,3.70
2023-01-19T11:22:16.405Z,3.70
2023-01-19T11:23:16.308Z,3.68
2023-01-19T11:24:16.276Z,3.83
2023-01-19T11:25:16.253Z,3.76
2023-01-19T11:26:16.216Z,3.70
2023-01-19T11:27:16.208Z,3.68
2023-01-19T11:28:16.169Z,3.76
2023-01-19T11:29:16.142Z,3.71
2023-01-19T11:30:16.123Z,3.75
2023-01-19T11:31:16.218Z,3.70
2023-01-19T11:32:16.079Z,3.68
2023-01-19T11:33:16.041Z,3.78
2023-01-19T11:34:16.345Z,3.76
2023-01-19T11:35:16.003Z,3.76
2023-01-19T11:36:16.021Z,3.83
2023-01-19T11:37:15.952Z,3.75
2023-01-19T11:38:15.916Z,3.83
2023-01-19T11:39:15.913Z,3.78
2023-01-19T11:40:15.876Z,3.71
2023-01-19T11:41:15.835Z,3.70
2023-01-19T11:42:15.819Z,3.78
2023-01-19T11:43:15.983Z,3.72
2023-01-19T11:44:15.758Z,3.71
2023-01-19T11:45:15.737Z,3.70
2023-01-19T11:46:15.721Z,3.68
2023-01-19T11:47:15.673Z,3.86
2023-01-19T11:48:15.657Z,3.65
2023-01-19T11:49:15.632Z,3.78
2023-01-19T11:50:15.682Z,3.85
2023-01-19T11:51:15.574Z,3.70
2023-01-19T11:52:15.552Z,3.70
2023-01-19T11:53:15.530Z,3.71
2023-01-19T11:54:17.727Z,3.65
2023-01-19T11:55:15.485Z,3.64
2023-01-19T11:56:15.492Z,3.70
2023-01-19T11:57:15.425Z,3.71
2023-01-19T11:58:15.427Z,3.79
2023-01-19T11:59:15.388Z,3.78
2023-01-19T12:00:15.457Z,3.80
2023-01-19T12:01:15.395Z,3.70
2023-01-19T12:02:15.302Z,3.72
2023-01-19T12:03:15.315Z,3.78
2023-01-19T12:04:15.282Z,3.80
2023-01-19T12:05:15.227Z,3.79
2023-01-19T12:06:15.314Z,3.71
2023-01-19T12:07:15.165Z,3.80
2023-01-19T12:08:15.138Z,3.89
2023-01-19T12:09:15.133Z,3.82
2023-01-19T12:10:15.203Z,3.75
2023-01-19T12:11:15.054Z,3.83
2023-01-19T12:12:15.035Z,3.80
2023-01-19T12:13:15.013Z,3.72
2023-01-19T12:14:14.986Z,3.78
2023-01-19T12:15:14.968Z,3.71
2023-01-19T12:16:14.966Z,3.72
2023-01-19T12:17:14.907Z,3.64
2023-01-19T12:18:14.918Z,3.72
2023-01-19T12:19:14.849Z,3.78
2023-01-19T12:20:14.953Z,3.78
2023-01-19T12:21:14.864Z,3.78
2023-01-19T12:22:14.939Z,3.75
2023-01-19T12:23:14.948Z,3.79
2023-01-19T12:24:14.877Z,3.76
2023-01-19T12:25:14.808Z,3.75
2023-01-19T12:26:14.717Z,3.75
2023-01-19T12:27:14.750Z,3.75
2023-01-19T12:28:14.621Z,3.67
2023-01-19T12:29:14.601Z,3.75
2023-01-19T12:30:14.642Z,3.75
2023-01-19T12:31:14.613Z,3.70
2023-01-19T12:32:14.557Z,3.78
2023-01-19T12:33:14.529Z,3.72
2023-01-19T12:34:14.471Z,3.76
2023-01-19T12:35:14.537Z,3.65
2023-01-19T12:36:14.598Z,3.78
2023-01-19T12:37:14.662Z,3.70
2023-01-19T12:38:14.364Z,3.75
2023-01-19T12:39:14.393Z,3.75
2023-01-19T12:40:14.341Z,3.72
2023-01-19T12:41:14.292Z,3.65
2023-01-19T12:42:14.345Z,3.67
2023-01-19T12:43:14.242Z,3.72
2023-01-19T12:44:14.216Z,3.70
2023-01-19T12:45:14.189Z,3.71
2023-01-19T12:46:14.206Z,3.68
2023-01-19T12:47:14.144Z,3.70
2023-01-19T12:48:14.111Z,3.76
2023-01-19T12:49:14.095Z,3.71
2023-01-19T12:50:14.123Z,3.71
2023-01-19T12:51:14.030Z,3.72
2023-01-19T12:52:14.063Z,3.72
2023-01-19T12:53:14.146Z,3.76
2023-01-19T12:54:13.945Z,3.68
2023-01-19T12:55:13.932Z,3.88
2023-01-19T12:56:13.898Z,3.72
2023-01-19T12:57:13.880Z,3.75
2023-01-19T12:58:13.873Z,3.71
2023-01-19T12:59:13.826Z,3.65
2023-01-19T13:00:13.814Z,3.70
2023-01-19T13:01:13.833Z,3.61
2023-01-19T13:02:13.848Z,3.54
2023-01-19T13:03:13.717Z,3.62
2023-01-19T13:04:13.690Z,3.62
2023-01-19T13:05:13.667Z,3.65
2023-01-19T13:06:13.646Z,3.65
2023-01-19T13:07:13.632Z,3.61
2023-01-19T13:08:13.696Z,3.47
2023-01-19T13:09:13.572Z,3.47
2023-01-19T13:10:13.534Z,3.34
2023-01-19T13:11:13.536Z,3.39
2023-01-19T13:12:13.493Z,3.42
2023-01-19T13:13:13.463Z,3.36
2023-01-19T13:14:13.431Z,3.31
2023-01-19T13:15:13.410Z,3.43
2023-01-19T13:16:13.435Z,3.46
2023-01-19T13:17:13.366Z,3.44
2023-01-19T13:18:13.335Z,3.44